createdAt,value
2019-05-29T00:00:13.417Z,4.25
2019-05-29T00:02:42.546Z,4.28
2019-05-29T00:05:12.213Z,4.03
2019-05-29T00:07:41.302Z,5.33
2019-05-29T00:10:10.574Z,4.80
2019-05-29T00:12:39.690Z,5.00
2019-05-29T00:15:08.857Z,5.67
2019-05-29T00:17:38.019Z,5.35
2019-05-29T00:20:08.236Z,5.67
2019-05-29T00:22:37.547Z,5.15
2019-05-29T00:25:07.039Z,5.15
2019-05-29T00:27:36.284Z,4.97
2019-05-29T00:30:06.919Z,5.83
2019-05-29T00:32:36.608Z,5.50
2019-05-29T00:35:06.239Z,5.42
2019-05-29T00:37:35.459Z,6.70
2019-05-29T00:40:05.168Z,5.65
2019-05-29T00:42:34.268Z,5.58
2019-05-29T00:45:03.522Z,5.37
2019-05-29T00:47:32.647Z,5.87
2019-05-29T00:50:01.722Z,6.28
2019-05-29T00:52:30.885Z,5.87
2019-05-29T00:54:59.840Z,6.45
2019-05-29T00:57:28.843Z,6.62
2019-05-29T00:59:58.017Z,5.62
2019-05-29T01:02:27.034Z,5.40
2019-05-29T01:04:56.192Z,6.28
2019-05-29T01:07:25.379Z,6.03
2019-05-29T01:09:54.450Z,7.37
2019-05-29T01:12:23.562Z,6.00
2019-05-29T01:14:52.635Z,6.58
2019-05-29T01:17:21.894Z,6.35
2019-05-29T01:19:51.095Z,6.15
2019-05-29T01:22:20.334Z,6.55
2019-05-29T01:24:49.587Z,6.40
2019-05-29T01:27:18.860Z,7.58
2019-05-29T01:29:47.964Z,6.20
2019-05-29T01:32:17.508Z,6.05
2019-05-29T01:34:46.710Z,6.95
2019-05-29T01:37:16.147Z,6.60
2019-05-29T01:39:45.274Z,6.70
2019-05-29T01:42:15.163Z,7.40
2019-05-29T01:44:44.235Z,6.72
2019-05-29T01:47:13.331Z,6.85
2019-05-29T01:49:42.345Z,6.53
2019-05-29T01:52:11.539Z,6.42
2019-05-29T01:54:40.538Z,6.25
2019-05-29T01:57:09.675Z,6.45
2019-05-29T01:59:38.829Z,6.70
2019-05-29T02:02:07.975Z,6.97
2019-05-29T02:04:37.031Z,7.33
2019-05-29T02:07:06.103Z,7.03
2019-05-29T02:09:35.186Z,6.78
2019-05-29T02:12:04.366Z,6.92
2019-05-29T02:14:33.505Z,6.78
2019-05-29T02:17:02.612Z,6.87
2019-05-29T02:19:31.873Z,7.08
2019-05-29T02:22:00.941Z,7.40
2019-05-29T02:24:29.967Z,7.67
2019-05-29T02:26:59.071Z,7.35
2019-05-29T02:29:28.220Z,7.12
2019-05-29T02:31:57.446Z,7.28
2019-05-29T02:34:27.910Z,8.23
2019-05-29T02:36:57.185Z,7.10
2019-05-29T02:39:27.297Z,7.53
2019-05-29T02:41:57.209Z,7.92
2019-05-29T02:44:27.478Z,7.70
2019-05-29T02:46:56.930Z,8.25
2019-05-29T02:49:27.882Z,8.20
2019-05-29T02:51:56.921Z,8.58
2019-05-29T02:54:27.285Z,8.73
2019-05-29T02:56:56.888Z,9.00
2019-05-29T02:59:27.419Z,9.53
2019-05-29T03:01:56.717Z,8.83
2019-05-29T03:04:26.224Z,8.73
2019-05-29T03:06:56.198Z,8.90
2019-05-29T03:09:26.563Z,9.78
2019-05-29T03:12:00.098Z,9.90
2019-05-29T03:14:29.424Z,9.53
2019-05-29T03:16:58.563Z,9.55
2019-05-29T03:19:28.043Z,9.80
2019-05-29T03:21:57.112Z,9.38
2019-05-29T03:24:26.649Z,9.48
2019-05-29T03:26:56.294Z,9.40
2019-05-29T03:29:25.992Z,9.28
2019-05-29T03:31:55.534Z,10.43
2019-05-29T03:34:27.388Z,9.18
2019-05-29T03:36:55.449Z,9.83
2019-05-29T03:39:26.202Z,10.10
2019-05-29T03:41:55.092Z,9.93
2019-05-29T03:44:24.091Z,9.88
2019-05-29T03:46:53.176Z,9.50
2019-05-29T03:49:22.364Z,9.40
2019-05-29T03:51:51.523Z,8.88
2019-05-29T03:54:20.526Z,9.50
2019-05-29T03:56:49.619Z,9.55
2019-05-29T03:59:18.690Z,9.53
2019-05-29T04:01:47.834Z,9.10
2019-05-29T04:04:16.910Z,9.10
2019-05-29T04:06:47.393Z,8.83
2019-05-29T04:09:16.792Z,8.23
2019-05-29T04:11:45.856Z,9.43
2019-05-29T04:14:15.660Z,8.48
2019-05-29T04:16:59.175Z,9.13
2019-05-29T04:19:16.754Z,8.80
2019-05-29T04:21:46.649Z,9.28
2019-05-29T04:24:18.612Z,8.78
2019-05-29T04:26:49.159Z,8.95
2019-05-29T04:29:18.949Z,8.65
2019-05-29T04:31:48.001Z,9.33
2019-05-29T04:34:17.070Z,9.53
2019-05-29T04:36:46.189Z,8.98
2019-05-29T04:39:15.113Z,9.55
2019-05-29T04:41:44.156Z,8.75
2019-05-29T04:44:13.227Z,9.38
2019-05-29T04:46:42.317Z,9.28
2019-05-29T04:49:11.259Z,9.35
2019-05-29T04:51:40.290Z,9.18
2019-05-29T04:54:09.389Z,9.33
2019-05-29T04:56:39.120Z,9.23
2019-05-29T04:59:08.419Z,8.95
2019-05-29T05:01:37.487Z,9.88
2019-05-29T05:04:06.508Z,8.70
2019-05-29T05:06:35.584Z,9.25
2019-05-29T05:09:06.111Z,8.95
2019-05-29T05:11:35.447Z,9.40
2019-05-29T05:14:04.712Z,9.95
2019-05-29T05:16:33.844Z,8.93
2019-05-29T05:19:02.926Z,9.10
2019-05-29T05:21:32.034Z,9.08
2019-05-29T05:24:01.251Z,8.90
2019-05-29T05:26:30.416Z,9.03
2019-05-29T05:28:59.528Z,8.55
2019-05-29T05:31:28.623Z,8.93
2019-05-29T05:33:57.781Z,9.05
2019-05-29T05:36:26.932Z,8.63
2019-05-29T05:38:55.992Z,9.20
2019-05-29T05:41:25.012Z,9.55
2019-05-29T05:43:54.110Z,9.48
2019-05-29T05:46:24.815Z,9.70
2019-05-29T05:48:53.909Z,9.13
2019-05-29T05:51:22.895Z,8.98
2019-05-29T05:53:51.867Z,8.75
2019-05-29T05:56:20.887Z,8.60
2019-05-29T05:58:49.907Z,9.53
2019-05-29T06:01:18.986Z,9.08
2019-05-29T06:03:48.117Z,9.43
2019-05-29T06:06:17.765Z,8.85
2019-05-29T06:08:46.759Z,9.03
2019-05-29T06:11:15.862Z,9.38
2019-05-29T06:13:45.010Z,8.90
2019-05-29T06:16:14.114Z,8.05
2019-05-29T06:18:43.331Z,8.18
2019-05-29T06:21:12.363Z,8.28
2019-05-29T06:23:41.493Z,8.25
2019-05-29T06:26:10.562Z,7.70
2019-05-29T06:28:39.736Z,8.00
2019-05-29T06:31:08.860Z,7.80
2019-05-29T06:33:37.886Z,7.47
2019-05-29T06:36:06.938Z,8.25
2019-05-29T06:38:35.938Z,7.50
2019-05-29T06:41:05.067Z,7.50
2019-05-29T06:43:34.166Z,6.55
2019-05-29T06:46:03.281Z,6.70
2019-05-29T06:48:44.753Z,6.95
2019-05-29T06:51:03.080Z,6.85
2019-05-29T06:53:32.174Z,7.35
2019-05-29T06:56:02.298Z,7.17
2019-05-29T06:58:31.958Z,6.62
2019-05-29T07:01:01.020Z,6.60
2019-05-29T07:03:30.012Z,6.15
2019-05-29T07:05:59.019Z,6.62
2019-05-29T07:08:38.080Z,6.05
2019-05-29T07:10:58.736Z,6.25
2019-05-29T07:13:27.911Z,5.37
2019-05-29T07:15:56.958Z,5.78
2019-05-29T07:18:25.948Z,6.28
2019-05-29T07:20:54.986Z,5.35
2019-05-29T07:23:24.107Z,5.83
2019-05-29T07:25:53.171Z,6.50
2019-05-29T07:28:22.959Z,6.05
2019-05-29T07:31:01.963Z,6.17
2019-05-29T07:33:28.400Z,6.70
2019-05-29T07:35:57.487Z,6.62
2019-05-29T07:38:26.468Z,6.30
2019-05-29T07:40:55.471Z,6.35
2019-05-29T07:43:24.748Z,6.45
2019-05-29T07:45:53.828Z,6.53
2019-05-29T07:48:22.928Z,6.28
2019-05-29T07:51:06.313Z,6.90
2019-05-29T07:53:22.798Z,6.17
2019-05-29T07:55:51.776Z,5.40
2019-05-29T07:58:20.852Z,5.80
2019-05-29T08:01:10.002Z,5.70
2019-05-29T08:03:20.910Z,6.00
2019-05-29T08:05:52.671Z,4.95
2019-05-29T08:08:20.670Z,5.87
2019-05-29T08:10:49.853Z,5.17
2019-05-29T08:13:18.988Z,5.92
2019-05-29T08:15:58.686Z,4.83
2019-05-29T08:18:18.643Z,5.33
2019-05-29T08:20:48.161Z,4.55
2019-05-29T08:23:17.387Z,5.20
2019-05-29T08:25:47.641Z,4.58
2019-05-29T08:28:16.881Z,4.60
2019-05-29T08:30:51.745Z,4.92
2019-05-29T08:33:16.659Z,4.75
2019-05-29T08:35:47.075Z,4.55
2019-05-29T08:38:16.253Z,4.90
2019-05-29T08:40:45.307Z,5.08
2019-05-29T08:43:14.382Z,5.35
2019-05-29T08:45:43.534Z,5.25
2019-05-29T08:48:12.654Z,5.33
2019-05-29T08:50:41.648Z,5.75
2019-05-29T08:53:10.630Z,5.30
2019-05-29T08:55:39.589Z,4.75
2019-05-29T08:58:08.667Z,5.03
2019-05-29T09:00:37.749Z,4.87
2019-05-29T09:03:06.766Z,5.08
2019-05-29T09:05:35.831Z,4.87
2019-05-29T09:08:04.889Z,4.42
2019-05-29T09:10:33.990Z,4.62
2019-05-29T09:13:05.068Z,4.65
2019-05-29T09:15:33.731Z,4.40
2019-05-29T09:18:02.815Z,5.45
2019-05-29T09:20:50.176Z,5.65
2019-05-29T09:23:02.509Z,6.60
2019-05-29T09:25:31.664Z,6.90
2019-05-29T09:28:00.670Z,6.37
2019-05-29T09:30:29.731Z,7.17
2019-05-29T09:32:58.759Z,7.80
2019-05-29T09:35:27.818Z,8.98
2019-05-29T09:37:56.783Z,8.90
2019-05-29T09:40:25.755Z,7.00
2019-05-29T09:42:54.675Z,7.72
2019-05-29T09:45:23.771Z,8.30
2019-05-29T09:47:52.954Z,6.75
2019-05-29T09:50:23.981Z,6.50
2019-05-29T09:52:53.232Z,6.58
2019-05-29T09:55:42.779Z,6.65
2019-05-29T09:58:11.878Z,6.10
2019-05-29T10:00:40.940Z,6.78
2019-05-29T10:03:10.012Z,7.03
2019-05-29T10:05:39.175Z,6.72
2019-05-29T10:08:08.273Z,6.40
2019-05-29T10:10:37.257Z,7.10
2019-05-29T10:13:06.411Z,6.58
2019-05-29T10:15:35.579Z,7.15
2019-05-29T10:18:08.320Z,6.28
2019-05-29T10:20:35.733Z,6.83
2019-05-29T10:23:05.154Z,5.65
2019-05-29T10:25:34.396Z,6.28
2019-05-29T10:28:05.954Z,6.40
2019-05-29T10:30:34.396Z,6.15
2019-05-29T10:33:03.399Z,6.08
2019-05-29T10:35:32.513Z,6.42
2019-05-29T10:38:01.663Z,5.92
2019-05-29T10:40:30.856Z,6.37
2019-05-29T10:42:59.794Z,6.05
2019-05-29T10:45:28.967Z,5.92
2019-05-29T10:47:58.014Z,5.62
2019-05-29T10:50:27.090Z,4.78
2019-05-29T10:52:56.144Z,5.45
2019-05-29T10:55:25.249Z,5.17
2019-05-29T10:57:55.197Z,5.83
2019-05-29T11:00:24.695Z,5.42
2019-05-29T11:02:55.822Z,5.42
2019-05-29T11:05:24.554Z,5.85
2019-05-29T11:07:54.044Z,5.80
2019-05-29T11:10:23.538Z,5.33
2019-05-29T11:12:52.710Z,5.15
2019-05-29T11:15:22.225Z,5.65
2019-05-29T11:17:51.507Z,5.65
2019-05-29T11:20:21.340Z,5.22
2019-05-29T11:22:51.529Z,5.10
2019-05-29T11:25:25.074Z,4.53
2019-05-29T11:27:53.238Z,4.83
2019-05-29T11:30:22.683Z,4.33
2019-05-29T11:32:53.061Z,5.35
2019-05-29T11:35:22.801Z,5.55
2019-05-29T11:37:52.473Z,5.70
2019-05-29T11:40:21.909Z,4.85
2019-05-29T11:42:50.990Z,5.45
2019-05-29T11:45:20.613Z,5.58
2019-05-29T11:47:51.362Z,5.33
2019-05-29T11:50:21.517Z,5.22
2019-05-29T11:52:50.597Z,5.50
2019-05-29T11:55:19.940Z,5.58
2019-05-29T11:57:48.870Z,4.80
2019-05-29T12:00:20.761Z,5.35
2019-05-29T12:02:49.324Z,5.47
2019-05-29T12:05:18.674Z,4.80
2019-05-29T12:07:47.757Z,4.50
2019-05-29T12:10:17.203Z,4.50
2019-05-29T12:12:46.510Z,3.72
2019-05-29T12:15:18.156Z,2.98
2019-05-29T12:17:46.885Z,2.67
2019-05-29T12:20:32.163Z,2.72
2019-05-29T12:23:11.315Z,2.83
2019-05-29T12:25:18.459Z,2.70
2019-05-29T12:27:47.489Z,2.67
2019-05-29T12:30:16.915Z,2.92
2019-05-29T12:32:45.978Z,3.35
2019-05-29T12:35:15.671Z,3.12
2019-05-29T12:37:44.743Z,3.60
2019-05-29T12:40:14.124Z,3.50
2019-05-29T12:42:45.001Z,3.20
2019-05-29T12:45:14.464Z,3.10
2019-05-29T12:47:43.525Z,3.58
2019-05-29T12:50:13.982Z,3.50
2019-05-29T12:52:43.057Z,3.90
2019-05-29T12:55:15.108Z,3.85
2019-05-29T12:57:44.189Z,4.03
2019-05-29T13:00:14.406Z,4.17
2019-05-29T13:02:43.406Z,4.70
2019-05-29T13:05:19.808Z,4.78
2019-05-29T13:07:44.051Z,4.03
2019-05-29T13:10:29.263Z,4.72
2019-05-29T13:12:45.866Z,4.70
2019-05-29T13:15:16.890Z,4.58
2019-05-29T13:17:45.874Z,4.47
2019-05-29T13:20:21.663Z,4.70
2019-05-29T13:22:46.472Z,4.65
2019-05-29T13:25:15.863Z,4.50
2019-05-29T13:27:44.929Z,4.75
2019-05-29T13:30:15.872Z,4.40
2019-05-29T13:32:44.989Z,4.53
2019-05-29T13:35:14.543Z,4.08
2019-05-29T13:37:43.603Z,4.10
2019-05-29T13:40:12.892Z,4.28
2019-05-29T13:42:42.036Z,4.08
2019-05-29T13:45:18.479Z,3.72
2019-05-29T13:50:12.941Z,3.45
2019-05-29T13:52:42.264Z,3.37
2019-05-29T13:55:11.716Z,3.60
2019-05-29T13:57:40.742Z,3.15
2019-05-29T14:00:30.367Z,3.30
